sensor_id;sensor_type;location;lat;lon;timestamp;temperature;humidity
31967;DHT22;18496;52.042;6.812;2023-09-30T00:00:14;16.80;99.60
31967;DHT22;18496;52.042;6.812;2023-09-30T00:02:18;16.80;99.60
31967;DHT22;18496;52.042;6.812;2023-09-30T00:04:21;16.80;99.50
31967;DHT22;18496;52.042;6.812;2023-09-30T00:06:25;16.80;99.50
31967;DHT22;18496;52.042;6.812;2023-09-30T00:08:28;16.80;99.50
31967;DHT22;18496;52.042;6.812;2023-09-30T00:10:32;16.70;99.60
31967;DHT22;18496;52.042;6.812;2023-09-30T00:12:35;16.70;99.60
31967;DHT22;18496;52.042;6.812;2023-09-30T00:14:39;16.70;99.70
31967;DHT22;18496;52.042;6.812;2023-09-30T00:16:43;16.70;99.60
31967;DHT22;18496;52.042;6.812;2023-09-30T00:18:47;16.70;99.70
31967;DHT22;18496;52.042;6.812;2023-09-30T00:20:51;16.70;99.80
31967;DHT22;18496;52.042;6.812;2023-09-30T00:22:55;16.70;99.90
31967;DHT22;18496;52.042;6.812;2023-09-30T00:24:58;16.70;99.90
31967;DHT22;18496;52.042;6.812;2023-09-30T00:27:02;16.70;99.90
31967;DHT22;18496;52.042;6.812;2023-09-30T00:29:06;16.70;99.90
31967;DHT22;18496;52.042;6.812;2023-09-30T00:31:09;16.80;99.90
31967;DHT22;18496;52.042;6.812;2023-09-30T00:33:13;16.80;99.80
31967;DHT22;18496;52.042;6.812;2023-09-30T00:35:17;16.80;99.80
31967;DHT22;18496;52.042;6.812;2023-09-30T00:37:21;16.80;99.90
31967;DHT22;18496;52.042;6.812;2023-09-30T00:39:24;16.70;99.80
31967;DHT22;18496;52.042;6.812;2023-09-30T00:41:30;16.80;99.80
31967;DHT22;18496;52.042;6.812;2023-09-30T00:43:34;16.70;99.70
31967;DHT22;18496;52.042;6.812;2023-09-30T00:45:37;16.70;99.80
31967;DHT22;18496;52.042;6.812;2023-09-30T00:47:42;16.70;99.80
31967;DHT22;18496;52.042;6.812;2023-09-30T00:49:46;16.60;99.90
31967;DHT22;18496;52.042;6.812;2023-09-30T00:51:51;16.60;99.90
31967;DHT22;18496;52.042;6.812;2023-09-30T00:53:58;16.60;99.90
31967;DHT22;18496;52.042;6.812;2023-09-30T00:56:02;16.60;99.90
31967;DHT22;18496;52.042;6.812;2023-09-30T00:58:06;16.60;99.90
31967;DHT22;18496;52.042;6.812;2023-09-30T01:00:11;16.60;99.90
31967;DHT22;18496;52.042;6.812;2023-09-30T01:02:15;16.60;99.90
31967;DHT22;18496;52.042;6.812;2023-09-30T01:04:19;16.70;99.90
31967;DHT22;18496;52.042;6.812;2023-09-30T01:06:24;16.70;99.90
31967;DHT22;18496;52.042;6.812;2023-09-30T01:08:28;16.70;99.90
31967;DHT22;18496;52.042;6.812;2023-09-30T01:10:31;16.80;99.90
31967;DHT22;18496;52.042;6.812;2023-09-30T01:12:35;16.80;99.90
31967;DHT22;18496;52.042;6.812;2023-09-30T01:14:39;16.80;99.90
31967;DHT22;18496;52.042;6.812;2023-09-30T01:16:45;16.80;99.90
31967;DHT22;18496;52.042;6.812;2023-09-30T01:18:49;16.80;99.90
31967;DHT22;18496;52.042;6.812;2023-09-30T01:20:53;16.80;99.80
31967;DHT22;18496;52.042;6.812;2023-09-30T01:22:58;16.70;99.80
31967;DHT22;18496;52.042;6.812;2023-09-30T01:25:01;16.70;99.90
31967;DHT22;18496;52.042;6.812;2023-09-30T01:27:05;16.70;99.90
31967;DHT22;18496;52.042;6.812;2023-09-30T01:29:09;16.70;99.90
31967;DHT22;18496;52.042;6.812;2023-09-30T01:31:16;16.60;99.90
31967;DHT22;18496;52.042;6.812;2023-09-30T01:33:19;16.60;99.90
31967;DHT22;18496;52.042;6.812;2023-09-30T01:35:23;16.60;99.90
31967;DHT22;18496;52.042;6.812;2023-09-30T01:37:27;16.50;99.90
31967;DHT22;18496;52.042;6.812;2023-09-30T01:39:31;16.50;99.90
31967;DHT22;18496;52.042;6.812;2023-09-30T01:41:37;16.50;99.90
31967;DHT22;18496;52.042;6.812;2023-09-30T01:43:43;16.40;99.90
31967;DHT22;18496;52.042;6.812;2023-09-30T01:45:47;16.30;99.90
31967;DHT22;18496;52.042;6.812;2023-09-30T01:47:51;16.30;99.90
31967;DHT22;18496;52.042;6.812;2023-09-30T01:49:54;16.30;99.90
31967;DHT22;18496;52.042;6.812;2023-09-30T01:51:58;16.20;99.90
31967;DHT22;18496;52.042;6.812;2023-09-30T01:54:03;16.30;99.90
31967;DHT22;18496;52.042;6.812;2023-09-30T01:56:06;16.20;99.90
31967;DHT22;18496;52.042;6.812;2023-09-30T01:58:10;16.20;99.90
31967;DHT22;18496;52.042;6.812;2023-09-30T02:00:14;16.10;99.90
31967;DHT22;18496;52.042;6.812;2023-09-30T02:02:19;16.10;99.90
31967;DHT22;18496;52.042;6.812;2023-09-30T02:04:24;16.10;99.90
31967;DHT22;18496;52.042;6.812;2023-09-30T02:06:28;16.10;99.90
31967;DHT22;18496;52.042;6.812;2023-09-30T02:08:32;16.20;99.90
31967;DHT22;18496;52.042;6.812;2023-09-30T02:10:36;16.10;99.90
31967;DHT22;18496;52.042;6.812;2023-09-30T02:12:40;16.10;99.90
31967;DHT22;18496;52.042;6.812;2023-09-30T02:14:43;16.10;99.90
31967;DHT22;18496;52.042;6.812;2023-09-30T02:16:47;16.10;99.90
31967;DHT22;18496;52.042;6.812;2023-09-30T02:18:50;16.10;99.90
31967;DHT22;18496;52.042;6.812;2023-09-30T02:20:55;16.20;99.90
31967;DHT22;18496;52.042;6.812;2023-09-30T02:22:59;16.20;99.90
31967;DHT22;18496;52.042;6.812;2023-09-30T02:25:03;16.10;99.90
31967;DHT22;18496;52.042;6.812;2023-09-30T02:27:10;16.20;99.90
31967;DHT22;18496;52.042;6.812;2023-09-30T02:29:14;16.10;99.90
31967;DHT22;18496;52.042;6.812;2023-09-30T02:31:18;16.10;99.90
31967;DHT22;18496;52.042;6.812;2023-09-30T02:33:22;16.10;99.90
31967;DHT22;18496;52.042;6.812;2023-09-30T02:35:25;16.10;99.90
31967;DHT22;18496;52.042;6.812;2023-09-30T02:37:34;16.10;99.90
31967;DHT22;18496;52.042;6.812;2023-09-30T02:39:39;16.10;99.90
31967;DHT22;18496;52.042;6.812;2023-09-30T02:41:43;16.00;99.90
31967;DHT22;18496;52.042;6.812;2023-09-30T02:43:47;16.00;99.90
31967;DHT22;18496;52.042;6.812;2023-09-30T02:45:51;16.00;99.90
31967;DHT22;18496;52.042;6.812;2023-09-30T02:47:54;16.00;99.90
31967;DHT22;18496;52.042;6.812;2023-09-30T02:49:58;16.00;99.90
31967;DHT22;18496;52.042;6.812;2023-09-30T02:52:02;16.00;99.90
31967;DHT22;18496;52.042;6.812;2023-09-30T02:54:06;16.00;99.90
31967;DHT22;18496;52.042;6.812;2023-09-30T02:56:09;16.00;99.90
31967;DHT22;18496;52.042;6.812;2023-09-30T02:58:14;15.90;99.90
31967;DHT22;18496;52.042;6.812;2023-09-30T03:00:18;16.00;99.90
31967;DHT22;18496;52.042;6.812;2023-09-30T03:02:27;16.00;99.90
31967;DHT22;18496;52.042;6.812;2023-09-30T03:04:30;15.90;99.90
31967;DHT22;18496;52.042;6.812;2023-09-30T03:06:34;16.00;99.90
31967;DHT22;18496;52.042;6.812;2023-09-30T03:08:40;16.00;99.90
31967;DHT22;18496;52.042;6.812;2023-09-30T03:10:44;16.00;99.90
31967;DHT22;18496;52.042;6.812;2023-09-30T03:12:48;16.10;99.90
31967;DHT22;18496;52.042;6.812;2023-09-30T03:14:52;16.10;99.90
31967;DHT22;18496;52.042;6.812;2023-09-30T03:16:55;16.10;99.90
31967;DHT22;18496;52.042;6.812;2023-09-30T03:18:59;16.20;99.90
31967;DHT22;18496;52.042;6.812;2023-09-30T03:21:13;16.20;99.90
31967;DHT22;18496;52.042;6.812;2023-09-30T03:23:17;16.20;99.90
31967;DHT22;18496;52.042;6.812;2023-09-30T03:25:21;16.20;99.90
31967;DHT22;18496;52.042;6.812;2023-09-30T03:27:25;16.20;99.90
31967;DHT22;18496;52.042;6.812;2023-09-30T03:29:29;16.20;99.90
31967;DHT22;18496;52.042;6.812;2023-09-30T03:31:33;16.20;99.90
31967;DHT22;18496;52.042;6.812;2023-09-30T03:33:37;16.10;99.90
31967;DHT22;18496;52.042;6.812;2023-09-30T03:35:41;16.10;99.90
31967;DHT22;18496;52.042;6.812;2023-09-30T03:37:46;16.10;99.90
31967;DHT22;18496;52.042;6.812;2023-09-30T03:39:50;16.10;99.90
31967;DHT22;18496;52.042;6.812;2023-09-30T03:41:55;16.10;99.90
31967;DHT22;18496;52.042;6.812;2023-09-30T03:43:59;16.00;99.90
31967;DHT22;18496;52.042;6.812;2023-09-30T03:46:03;16.00;99.90
31967;DHT22;18496;52.042;6.812;2023-09-30T03:48:07;15.90;99.90
31967;DHT22;18496;52.042;6.812;2023-09-30T03:50:11;16.00;99.90
31967;DHT22;18496;52.042;6.812;2023-09-30T03:52:18;16.00;99.90
31967;DHT22;18496;52.042;6.812;2023-09-30T03:54:21;16.00;99.90
31967;DHT22;18496;52.042;6.812;2023-09-30T03:56:25;16.00;99.90
31967;DHT22;18496;52.042;6.812;2023-09-30T03:58:29;16.00;99.90
31967;DHT22;18496;52.042;6.812;2023-09-30T04:00:32;16.00;99.90
31967;DHT22;18496;52.042;6.812;2023-09-30T04:02:36;16.00;99.90
31967;DHT22;18496;52.042;6.812;2023-09-30T04:04:40;15.90;99.90
31967;DHT22;18496;52.042;6.812;2023-09-30T04:06:44;15.90;99.90
31967;DHT22;18496;52.042;6.812;2023-09-30T04:08:47;16.00;99.90
31967;DHT22;18496;52.042;6.812;2023-09-30T04:10:51;16.00;99.90
31967;DHT22;18496;52.042;6.812;2023-09-30T04:12:54;16.00;99.90
31967;DHT22;18496;52.042;6.812;2023-09-30T04:14:59;16.00;99.90
31967;DHT22;18496;52.042;6.812;2023-09-30T04:17:02;15.90;99.90
31967;DHT22;18496;52.042;6.812;2023-09-30T04:19:07;15.90;99.90
31967;DHT22;18496;52.042;6.812;2023-09-30T04:21:13;15.90;99.90
31967;DHT22;18496;52.042;6.812;2023-09-30T04:23:17;15.90;99.90
31967;DHT22;18496;52.042;6.812;2023-09-30T04:25:23;15.90;99.90
31967;DHT22;18496;52.042;6.812;2023-09-30T04:27:28;15.80;99.90
31967;DHT22;18496;52.042;6.812;2023-09-30T04:29:31;15.80;99.90
31967;DHT22;18496;52.042;6.812;2023-09-30T04:31:35;15.80;99.90
31967;DHT22;18496;52.042;6.812;2023-09-30T04:33:39;15.80;99.90
31967;DHT22;18496;52.042;6.812;2023-09-30T04:35:43;15.80;99.90
31967;DHT22;18496;52.042;6.812;2023-09-30T04:37:48;15.70;99.90
31967;DHT22;18496;52.042;6.812;2023-09-30T04:39:51;15.70;99.90
31967;DHT22;18496;52.042;6.812;2023-09-30T04:41:56;15.70;99.90
31967;DHT22;18496;52.042;6.812;2023-09-30T04:44:01;15.60;99.90
31967;DHT22;18496;52.042;6.812;2023-09-30T04:46:05;15.60;99.90
31967;DHT22;18496;52.042;6.812;2023-09-30T04:48:10;15.60;99.90
31967;DHT22;18496;52.042;6.812;2023-09-30T04:50:14;15.60;99.90
31967;DHT22;18496;52.042;6.812;2023-09-30T04:52:19;15.60;99.90
31967;DHT22;18496;52.042;6.812;2023-09-30T04:54:24;15.60;99.90
31967;DHT22;18496;52.042;6.812;2023-09-30T04:56:28;15.70;99.90
31967;DHT22;18496;52.042;6.812;2023-09-30T04:58:32;15.70;99.90
31967;DHT22;18496;52.042;6.812;2023-09-30T05:00:36;15.70;99.90
31967;DHT22;18496;52.042;6.812;2023-09-30T05:02:39;15.70;99.90
31967;DHT22;18496;52.042;6.812;2023-09-30T05:04:43;15.70;99.90
31967;DHT22;18496;52.042;6.812;2023-09-30T05:06:47;15.70;99.90
31967;DHT22;18496;52.042;6.812;2023-09-30T05:08:50;15.70;99.90
31967;DHT22;18496;52.042;6.812;2023-09-30T05:10:54;15.70;99.90
31967;DHT22;18496;52.042;6.812;2023-09-30T05:13:00;15.70;99.90
31967;DHT22;18496;52.042;6.812;2023-09-30T05:15:05;15.60;99.90
31967;DHT22;18496;52.042;6.812;2023-09-30T05:17:12;15.60;99.90
31967;DHT22;18496;52.042;6.812;2023-09-30T05:19:16;15.60;99.90
31967;DHT22;18496;52.042;6.812;2023-09-30T05:21:20;15.60;99.90
31967;DHT22;18496;52.042;6.812;2023-09-30T05:23:24;15.50;99.90
31967;DHT22;18496;52.042;6.812;2023-09-30T05:25:29;15.50;99.90
31967;DHT22;18496;52.042;6.812;2023-09-30T05:27:32;15.50;99.90
31967;DHT22;18496;52.042;6.812;2023-09-30T05:29:36;15.40;99.90
31967;DHT22;18496;52.042;6.812;2023-09-30T05:31:39;15.40;99.90
31967;DHT22;18496;52.042;6.812;2023-09-30T05:33:43;15.40;99.90
31967;DHT22;18496;52.042;6.812;2023-09-30T05:35:47;15.40;99.90
31967;DHT22;18496;52.042;6.812;2023-09-30T05:37:51;15.30;99.90
31967;DHT22;18496;52.042;6.812;2023-09-30T05:39:57;15.30;99.90
31967;DHT22;18496;52.042;6.812;2023-09-30T05:42:01;15.30;99.90
31967;DHT22;18496;52.042;6.812;2023-09-30T05:44:05;15.30;99.90
31967;DHT22;18496;52.042;6.812;2023-09-30T05:46:11;15.30;99.90
31967;DHT22;18496;52.042;6.812;2023-09-30T05:48:15;15.30;99.90
31967;DHT22;18496;52.042;6.812;2023-09-30T05:50:20;15.20;99.90
31967;DHT22;18496;52.042;6.812;2023-09-30T05:52:28;15.30;99.90
31967;DHT22;18496;52.042;6.812;2023-09-30T05:54:31;15.20;99.90
31967;DHT22;18496;52.042;6.812;2023-09-30T05:56:36;15.20;99.90
31967;DHT22;18496;52.042;6.812;2023-09-30T05:58:42;15.30;99.90
31967;DHT22;18496;52.042;6.812;2023-09-30T06:00:45;15.30;99.90
31967;DHT22;18496;52.042;6.812;2023-09-30T06:02:49;15.30;99.90
31967;DHT22;18496;52.042;6.812;2023-09-30T06:04:54;15.30;99.90
31967;DHT22;18496;52.042;6.812;2023-09-30T06:07:00;15.30;99.90
31967;DHT22;18496;52.042;6.812;2023-09-30T06:09:04;15.30;99.90
31967;DHT22;18496;52.042;6.812;2023-09-30T06:11:21;15.30;99.90
31967;DHT22;18496;52.042;6.812;2023-09-30T06:13:28;15.30;99.90
31967;DHT22;18496;52.042;6.812;2023-09-30T06:15:40;15.30;99.90
31967;DHT22;18496;52.042;6.812;2023-09-30T06:17:44;15.40;99.90
31967;DHT22;18496;52.042;6.812;2023-09-30T06:19:48;15.40;99.90
31967;DHT22;18496;52.042;6.812;2023-09-30T06:21:53;15.40;99.90
31967;DHT22;18496;52.042;6.812;2023-09-30T06:23:57;15.40;99.90
31967;DHT22;18496;52.042;6.812;2023-09-30T06:26:01;15.50;99.90
31967;DHT22;18496;52.042;6.812;2023-09-30T06:28:05;15.60;99.90
31967;DHT22;18496;52.042;6.812;2023-09-30T06:30:12;15.60;99.90
31967;DHT22;18496;52.042;6.812;2023-09-30T06:32:16;15.60;99.90
31967;DHT22;18496;52.042;6.812;2023-09-30T06:34:20;15.60;99.90
31967;DHT22;18496;52.042;6.812;2023-09-30T06:36:24;15.60;99.90
31967;DHT22;18496;52.042;6.812;2023-09-30T06:38:27;15.60;99.90
31967;DHT22;18496;52.042;6.812;2023-09-30T06:40:31;15.60;99.90
31967;DHT22;18496;52.042;6.812;2023-09-30T06:42:36;15.60;99.90
31967;DHT22;18496;52.042;6.812;2023-09-30T06:44:41;15.60;99.90
31967;DHT22;18496;52.042;6.812;2023-09-30T06:46:44;15.60;99.90
31967;DHT22;18496;52.042;6.812;2023-09-30T06:48:48;15.50;99.90
31967;DHT22;18496;52.042;6.812;2023-09-30T06:50:52;15.50;99.90
31967;DHT22;18496;52.042;6.812;2023-09-30T06:52:56;15.60;99.90
31967;DHT22;18496;52.042;6.812;2023-09-30T06:54:59;15.60;99.90
31967;DHT22;18496;52.042;6.812;2023-09-30T06:57:03;15.60;99.90
31967;DHT22;18496;52.042;6.812;2023-09-30T06:59:07;15.60;99.90
31967;DHT22;18496;52.042;6.812;2023-09-30T07:01:15;15.70;99.90
31967;DHT22;18496;52.042;6.812;2023-09-30T07:03:20;15.70;99.90
31967;DHT22;18496;52.042;6.812;2023-09-30T07:05:24;15.80;99.90
31967;DHT22;18496;52.042;6.812;2023-09-30T07:07:28;15.80;99.90
31967;DHT22;18496;52.042;6.812;2023-09-30T07:09:32;15.80;99.90
31967;DHT22;18496;52.042;6.812;2023-09-30T07:11:36;15.90;99.90
31967;DHT22;18496;52.042;6.812;2023-09-30T07:13:39;15.90;99.90
31967;DHT22;18496;52.042;6.812;2023-09-30T07:15:43;15.90;99.90
31967;DHT22;18496;52.042;6.812;2023-09-30T07:17:47;15.90;99.90
31967;DHT22;18496;52.042;6.812;2023-09-30T07:19:51;16.00;99.90
31967;DHT22;18496;52.042;6.812;2023-09-30T07:21:54;16.00;99.90
31967;DHT22;18496;52.042;6.812;2023-09-30T07:23:58;16.00;99.90
31967;DHT22;18496;52.042;6.812;2023-09-30T07:26:01;16.10;99.90
31967;DHT22;18496;52.042;6.812;2023-09-30T07:28:05;16.10;99.90
31967;DHT22;18496;52.042;6.812;2023-09-30T07:30:14;16.00;99.90
31967;DHT22;18496;52.042;6.812;2023-09-30T07:32:18;16.00;99.90
31967;DHT22;18496;52.042;6.812;2023-09-30T07:34:22;16.00;99.90
31967;DHT22;18496;52.042;6.812;2023-09-30T07:36:26;15.90;99.90
31967;DHT22;18496;52.042;6.812;2023-09-30T07:38:29;16.00;99.90
31967;DHT22;18496;52.042;6.812;2023-09-30T07:40:33;15.90;99.90
31967;DHT22;18496;52.042;6.812;2023-09-30T07:42:37;15.90;99.90
31967;DHT22;18496;52.042;6.812;2023-09-30T07:44:41;15.90;99.90
31967;DHT22;18496;52.042;6.812;2023-09-30T07:46:45;15.90;99.90
31967;DHT22;18496;52.042;6.812;2023-09-30T07:48:48;15.90;99.90
31967;DHT22;18496;52.042;6.812;2023-09-30T07:50:52;15.90;99.90
31967;DHT22;18496;52.042;6.812;2023-09-30T07:52:56;15.90;99.90
31967;DHT22;18496;52.042;6.812;2023-09-30T07:54:59;15.90;99.90
31967;DHT22;18496;52.042;6.812;2023-09-30T07:57:03;16.00;99.90
31967;DHT22;18496;52.042;6.812;2023-09-30T07:59:06;16.00;99.90
31967;DHT22;18496;52.042;6.812;2023-09-30T08:01:10;16.00;99.90
31967;DHT22;18496;52.042;6.812;2023-09-30T08:03:14;16.00;99.90
31967;DHT22;18496;52.042;6.812;2023-09-30T08:05:18;16.10;99.90
31967;DHT22;18496;52.042;6.812;2023-09-30T08:07:22;16.10;99.90
31967;DHT22;18496;52.042;6.812;2023-09-30T08:09:25;16.20;99.90
31967;DHT22;18496;52.042;6.812;2023-09-30T08:11:29;16.20;99.90
31967;DHT22;18496;52.042;6.812;2023-09-30T08:13:35;16.20;99.90
31967;DHT22;18496;52.042;6.812;2023-09-30T08:15:39;16.20;99.90
31967;DHT22;18496;52.042;6.812;2023-09-30T08:17:43;16.30;99.90
31967;DHT22;18496;52.042;6.812;2023-09-30T08:19:47;16.30;99.90
31967;DHT22;18496;52.042;6.812;2023-09-30T08:21:51;16.40;99.90
31967;DHT22;18496;52.042;6.812;2023-09-30T08:23:55;16.50;99.90
31967;DHT22;18496;52.042;6.812;2023-09-30T08:25:59;16.50;99.90
31967;DHT22;18496;52.042;6.812;2023-09-30T08:28:03;16.60;99.90
31967;DHT22;18496;52.042;6.812;2023-09-30T08:30:08;16.60;99.90
31967;DHT22;18496;52.042;6.812;2023-09-30T08:32:11;16.70;99.90
31967;DHT22;18496;52.042;6.812;2023-09-30T08:34:15;16.70;99.90
31967;DHT22;18496;52.042;6.812;2023-09-30T08:36:19;16.70;99.90
31967;DHT22;18496;52.042;6.812;2023-09-30T08:38:23;16.70;99.90
31967;DHT22;18496;52.042;6.812;2023-09-30T08:40:28;16.80;99.90
31967;DHT22;18496;52.042;6.812;2023-09-30T08:42:32;16.90;99.90
31967;DHT22;18496;52.042;6.812;2023-09-30T08:44:40;16.90;99.90
31967;DHT22;18496;52.042;6.812;2023-09-30T08:46:44;16.90;99.90
31967;DHT22;18496;52.042;6.812;2023-09-30T08:48:49;17.00;99.90
31967;DHT22;18496;52.042;6.812;2023-09-30T08:50:53;17.00;99.90
31967;DHT22;18496;52.042;6.812;2023-09-30T08:53:02;17.10;99.90
31967;DHT22;18496;52.042;6.812;2023-09-30T08:55:08;17.20;99.90
31967;DHT22;18496;52.042;6.812;2023-09-30T08:57:13;17.20;99.90
31967;DHT22;18496;52.042;6.812;2023-09-30T08:59:18;17.30;99.90
31967;DHT22;18496;52.042;6.812;2023-09-30T09:01:22;17.30;99.90
31967;DHT22;18496;52.042;6.812;2023-09-30T09:03:28;17.40;99.90
31967;DHT22;18496;52.042;6.812;2023-09-30T09:05:33;17.40;99.90
31967;DHT22;18496;52.042;6.812;2023-09-30T09:07:36;17.50;99.90
31967;DHT22;18496;52.042;6.812;2023-09-30T09:09:40;17.50;99.90
31967;DHT22;18496;52.042;6.812;2023-09-30T09:11:44;17.60;99.90
31967;DHT22;18496;52.042;6.812;2023-09-30T09:13:50;17.60;99.90
31967;DHT22;18496;52.042;6.812;2023-09-30T09:16:09;17.70;99.90
31967;DHT22;18496;52.042;6.812;2023-09-30T09:18:30;17.70;99.90
31967;DHT22;18496;52.042;6.812;2023-09-30T09:20:34;17.80;99.90
31967;DHT22;18496;52.042;6.812;2023-09-30T09:22:42;17.80;99.90
31967;DHT22;18496;52.042;6.812;2023-09-30T09:24:46;17.80;99.90
31967;DHT22;18496;52.042;6.812;2023-09-30T09:26:51;17.90;99.90
31967;DHT22;18496;52.042;6.812;2023-09-30T09:31:02;17.90;99.90
31967;DHT22;18496;52.042;6.812;2023-09-30T09:33:06;18.00;99.90
31967;DHT22;18496;52.042;6.812;2023-09-30T09:35:10;18.10;99.90
31967;DHT22;18496;52.042;6.812;2023-09-30T09:37:18;18.10;99.90
31967;DHT22;18496;52.042;6.812;2023-09-30T09:39:29;18.20;99.90
31967;DHT22;18496;52.042;6.812;2023-09-30T09:41:55;18.20;99.90
31967;DHT22;18496;52.042;6.812;2023-09-30T09:44:01;18.20;99.90
31967;DHT22;18496;52.042;6.812;2023-09-30T09:46:07;18.30;99.90
31967;DHT22;18496;52.042;6.812;2023-09-30T09:48:11;18.30;99.90
31967;DHT22;18496;52.042;6.812;2023-09-30T09:50:15;18.30;99.90
31967;DHT22;18496;52.042;6.812;2023-09-30T09:52:21;18.40;99.90
31967;DHT22;18496;52.042;6.812;2023-09-30T09:54:25;18.40;99.90
31967;DHT22;18496;52.042;6.812;2023-09-30T09:56:32;18.50;99.90
31967;DHT22;18496;52.042;6.812;2023-09-30T09:58:38;18.50;99.90
31967;DHT22;18496;52.042;6.812;2023-09-30T10:00:44;18.60;99.90
31967;DHT22;18496;52.042;6.812;2023-09-30T10:02:48;18.60;99.90
31967;DHT22;18496;52.042;6.812;2023-09-30T10:04:52;18.60;99.90
31967;DHT22;18496;52.042;6.812;2023-09-30T10:06:56;18.70;99.90
31967;DHT22;18496;52.042;6.812;2023-09-30T10:09:01;18.80;99.90
31967;DHT22;18496;52.042;6.812;2023-09-30T10:11:06;18.80;99.90
31967;DHT22;18496;52.042;6.812;2023-09-30T10:13:49;18.80;99.90
31967;DHT22;18496;52.042;6.812;2023-09-30T10:15:53;19.00;99.90
31967;DHT22;18496;52.042;6.812;2023-09-30T10:18:11;19.00;99.90
31967;DHT22;18496;52.042;6.812;2023-09-30T10:20:15;19.00;99.60
31967;DHT22;18496;52.042;6.812;2023-09-30T10:22:20;19.10;99.50
31967;DHT22;18496;52.042;6.812;2023-09-30T10:24:28;19.10;99.70
31967;DHT22;18496;52.042;6.812;2023-09-30T10:26:32;19.10;99.50
31967;DHT22;18496;52.042;6.812;2023-09-30T10:28:43;19.20;99.40
31967;DHT22;18496;52.042;6.812;2023-09-30T10:31:18;19.30;99.10
31967;DHT22;18496;52.042;6.812;2023-09-30T10:33:30;19.40;99.20
31967;DHT22;18496;52.042;6.812;2023-09-30T10:37:38;19.40;99.00
31967;DHT22;18496;52.042;6.812;2023-09-30T10:40:09;19.50;99.10
31967;DHT22;18496;52.042;6.812;2023-09-30T10:42:48;19.60;99.10
31967;DHT22;18496;52.042;6.812;2023-09-30T10:44:58;19.60;98.90
31967;DHT22;18496;52.042;6.812;2023-09-30T10:51:27;19.80;98.10
31967;DHT22;18496;52.042;6.812;2023-09-30T10:53:31;19.80;98.20
31967;DHT22;18496;52.042;6.812;2023-09-30T10:55:35;19.80;98.00
31967;DHT22;18496;52.042;6.812;2023-09-30T10:57:39;19.90;98.00
31967;DHT22;18496;52.042;6.812;2023-09-30T10:59:43;20.00;98.00
31967;DHT22;18496;52.042;6.812;2023-09-30T11:01:47;20.00;97.70
31967;DHT22;18496;52.042;6.812;2023-09-30T11:03:59;20.00;97.60
31967;DHT22;18496;52.042;6.812;2023-09-30T11:06:05;20.00;97.70
31967;DHT22;18496;52.042;6.812;2023-09-30T11:08:09;19.90;97.70
31967;DHT22;18496;52.042;6.812;2023-09-30T11:10:17;19.90;97.60
31967;DHT22;18496;52.042;6.812;2023-09-30T11:12:21;19.90;97.60
31967;DHT22;18496;52.042;6.812;2023-09-30T11:14:30;19.80;97.80
31967;DHT22;18496;52.042;6.812;2023-09-30T11:16:44;19.90;97.60
31967;DHT22;18496;52.042;6.812;2023-09-30T11:18:53;19.80;97.80
31967;DHT22;18496;52.042;6.812;2023-09-30T11:21:05;19.80;97.90
31967;DHT22;18496;52.042;6.812;2023-09-30T11:23:09;19.90;97.90
31967;DHT22;18496;52.042;6.812;2023-09-30T11:25:18;19.90;97.60
31967;DHT22;18496;52.042;6.812;2023-09-30T11:27:23;20.00;96.80
31967;DHT22;18496;52.042;6.812;2023-09-30T11:29:30;20.00;96.90
31967;DHT22;18496;52.042;6.812;2023-09-30T11:31:37;20.10;97.00
31967;DHT22;18496;52.042;6.812;2023-09-30T11:33:50;20.20;96.30
31967;DHT22;18496;52.042;6.812;2023-09-30T11:36:01;20.30;95.40
31967;DHT22;18496;52.042;6.812;2023-09-30T11:38:05;20.40;95.50
31967;DHT22;18496;52.042;6.812;2023-09-30T11:40:13;20.50;95.50
31967;DHT22;18496;52.042;6.812;2023-09-30T11:42:18;20.60;94.90
31967;DHT22;18496;52.042;6.812;2023-09-30T11:44:26;20.70;94.80
31967;DHT22;18496;52.042;6.812;2023-09-30T11:46:30;20.70;94.30
31967;DHT22;18496;52.042;6.812;2023-09-30T11:48:35;20.80;94.30
31967;DHT22;18496;52.042;6.812;2023-09-30T11:50:47;20.70;94.30
31967;DHT22;18496;52.042;6.812;2023-09-30T11:52:50;20.70;94.50
31967;DHT22;18496;52.042;6.812;2023-09-30T11:54:54;20.60;94.20
31967;DHT22;18496;52.042;6.812;2023-09-30T11:57:00;20.60;94.20
31967;DHT22;18496;52.042;6.812;2023-09-30T11:59:05;20.50;94.20
31967;DHT22;18496;52.042;6.812;2023-09-30T12:01:08;20.50;94.70
31967;DHT22;18496;52.042;6.812;2023-09-30T12:03:15;20.60;94.20
31967;DHT22;18496;52.042;6.812;2023-09-30T12:05:19;20.70;94.10
31967;DHT22;18496;52.042;6.812;2023-09-30T12:07:25;20.70;94.00
31967;DHT22;18496;52.042;6.812;2023-09-30T12:09:29;20.80;93.40
31967;DHT22;18496;52.042;6.812;2023-09-30T12:11:34;20.70;93.10
31967;DHT22;18496;52.042;6.812;2023-09-30T12:13:38;20.70;93.10
31967;DHT22;18496;52.042;6.812;2023-09-30T12:15:42;20.70;92.90
31967;DHT22;18496;52.042;6.812;2023-09-30T12:17:47;20.70;93.20
31967;DHT22;18496;52.042;6.812;2023-09-30T12:19:51;20.90;93.10
31967;DHT22;18496;52.042;6.812;2023-09-30T12:21:54;21.00;93.00
31967;DHT22;18496;52.042;6.812;2023-09-30T12:23:59;21.10;93.20
31967;DHT22;18496;52.042;6.812;2023-09-30T12:26:03;21.10;92.20
31967;DHT22;18496;52.042;6.812;2023-09-30T12:28:09;21.10;91.50
31967;DHT22;18496;52.042;6.812;2023-09-30T12:30:13;21.10;92.20
31967;DHT22;18496;52.042;6.812;2023-09-30T12:32:17;21.30;92.80
31967;DHT22;18496;52.042;6.812;2023-09-30T12:34:20;21.30;92.40
31967;DHT22;18496;52.042;6.812;2023-09-30T12:36:27;21.40;92.30
31967;DHT22;18496;52.042;6.812;2023-09-30T12:38:31;21.50;92.50
31967;DHT22;18496;52.042;6.812;2023-09-30T12:40:34;21.60;92.10
31967;DHT22;18496;52.042;6.812;2023-09-30T12:42:38;21.70;92.00
31967;DHT22;18496;52.042;6.812;2023-09-30T12:44:42;21.70;91.10
31967;DHT22;18496;52.042;6.812;2023-09-30T12:46:45;21.70;90.80
31967;DHT22;18496;52.042;6.812;2023-09-30T12:48:49;21.80;91.20
31967;DHT22;18496;52.042;6.812;2023-09-30T12:50:53;21.80;90.70
31967;DHT22;18496;52.042;6.812;2023-09-30T12:52:56;21.80;90.90
31967;DHT22;18496;52.042;6.812;2023-09-30T12:55:00;21.80;90.70
31967;DHT22;18496;52.042;6.812;2023-09-30T12:57:03;21.70;89.50
31967;DHT22;18496;52.042;6.812;2023-09-30T12:59:07;21.70;88.90
31967;DHT22;18496;52.042;6.812;2023-09-30T13:01:11;21.60;88.40
31967;DHT22;18496;52.042;6.812;2023-09-30T13:03:15;21.60;90.00
31967;DHT22;18496;52.042;6.812;2023-09-30T13:05:19;21.60;89.90
31967;DHT22;18496;52.042;6.812;2023-09-30T13:07:23;21.70;90.30
31967;DHT22;18496;52.042;6.812;2023-09-30T13:09:28;21.80;89.70
31967;DHT22;18496;52.042;6.812;2023-09-30T13:11:31;21.90;90.40
31967;DHT22;18496;52.042;6.812;2023-09-30T13:13:35;22.00;90.50
31967;DHT22;18496;52.042;6.812;2023-09-30T13:15:39;22.10;88.60
31967;DHT22;18496;52.042;6.812;2023-09-30T13:17:44;22.20;87.70